sensor_id;sensor_type;location;lat;lon;timestamp;pressure;altitude;pressure_sealevel;temperature
61977;BMP280;45905;50.570;10.428;2023-07-20T00:00:15;97591.75;;;17.51
61977;BMP280;45905;50.570;10.428;2023-07-20T00:02:42;97598.88;;;17.49
61977;BMP280;45905;50.570;10.428;2023-07-20T00:05:10;97604.19;;;17.48
61977;BMP280;45905;50.570;10.428;2023-07-20T00:07:37;97604.59;;;17.45
61977;BMP280;45905;50.570;10.428;2023-07-20T00:10:04;97608.31;;;17.42
61977;BMP280;45905;50.570;10.428;2023-07-20T00:12:31;97604.03;;;17.37
61977;BMP280;45905;50.570;10.428;2023-07-20T00:14:59;97598.75;;;17.32
61977;BMP280;45905;50.570;10.428;2023-07-20T00:17:26;97609.19;;;17.30
61977;BMP280;45905;50.570;10.428;2023-07-20T00:19:53;97602.88;;;17.26
61977;BMP280;45905;50.570;10.428;2023-07-20T00:22:20;97604.28;;;17.22
61977;BMP280;45905;50.570;10.428;2023-07-20T00:24:47;97598.19;;;17.17
61977;BMP280;45905;50.570;10.428;2023-07-20T00:27:16;97598.63;;;17.14
61977;BMP280;45905;50.570;10.428;2023-07-20T00:29:43;97587.59;;;17.07
61977;BMP280;45905;50.570;10.428;2023-07-20T00:32:10;97591.16;;;17.06
61977;BMP280;45905;50.570;10.428;2023-07-20T00:34:37;97598.06;;;17.06
61977;BMP280;45905;50.570;10.428;2023-07-20T00:37:04;97594.72;;;17.05
61977;BMP280;45905;50.570;10.428;2023-07-20T00:39:32;97599.03;;;16.99
61977;BMP280;45905;50.570;10.428;2023-07-20T00:41:59;97608.91;;;16.89
61977;BMP280;45905;50.570;10.428;2023-07-20T00:44:27;97608.69;;;16.84
61977;BMP280;45905;50.570;10.428;2023-07-20T00:46:54;97598.66;;;16.82
61977;BMP280;45905;50.570;10.428;2023-07-20T00:49:22;97601.41;;;16.81
61977;BMP280;45905;50.570;10.428;2023-07-20T00:51:51;97602.63;;;16.79
61977;BMP280;45905;50.570;10.428;2023-07-20T00:54:18;97597.09;;;16.75
61977;BMP280;45905;50.570;10.428;2023-07-20T00:56:45;97591.41;;;16.73
61977;BMP280;45905;50.570;10.428;2023-07-20T00:59:13;97595.16;;;16.64
61977;BMP280;45905;50.570;10.428;2023-07-20T01:01:41;97604.63;;;16.58
61977;BMP280;45905;50.570;10.428;2023-07-20T01:04:08;97605.59;;;16.57
61977;BMP280;45905;50.570;10.428;2023-07-20T01:09:50;97605.81;;;16.49
61977;BMP280;45905;50.570;10.428;2023-07-20T01:12:48;97620.53;;;16.47
61977;BMP280;45905;50.570;10.428;2023-07-20T01:15:18;97609.75;;;16.45
61977;BMP280;45905;50.570;10.428;2023-07-20T01:17:46;97607.59;;;16.42
61977;BMP280;45905;50.570;10.428;2023-07-20T01:20:16;97600.31;;;16.39
61977;BMP280;45905;50.570;10.428;2023-07-20T01:26:37;97604.63;;;16.39
61977;BMP280;45905;50.570;10.428;2023-07-20T01:29:15;97599.69;;;16.37
61977;BMP280;45905;50.570;10.428;2023-07-20T01:31:50;97602.88;;;16.33
61977;BMP280;45905;50.570;10.428;2023-07-20T01:34:19;97605.00;;;16.29
61977;BMP280;45905;50.570;10.428;2023-07-20T01:36:50;97618.00;;;16.22
61977;BMP280;45905;50.570;10.428;2023-07-20T01:39:21;97621.16;;;16.17
61977;BMP280;45905;50.570;10.428;2023-07-20T01:41:49;97612.69;;;16.17
61977;BMP280;45905;50.570;10.428;2023-07-20T01:44:16;97610.94;;;16.17
61977;BMP280;45905;50.570;10.428;2023-07-20T01:46:43;97611.91;;;16.16
61977;BMP280;45905;50.570;10.428;2023-07-20T01:49:10;97613.88;;;16.14
61977;BMP280;45905;50.570;10.428;2023-07-20T01:51:37;97610.16;;;16.10
61977;BMP280;45905;50.570;10.428;2023-07-20T01:54:05;97609.75;;;16.07
61977;BMP280;45905;50.570;10.428;2023-07-20T01:56:32;97613.47;;;16.04
61977;BMP280;45905;50.570;10.428;2023-07-20T01:58:59;97614.84;;;16.01
61977;BMP280;45905;50.570;10.428;2023-07-20T02:01:26;97616.03;;;15.98
61977;BMP280;45905;50.570;10.428;2023-07-20T02:03:55;97621.88;;;15.92
61977;BMP280;45905;50.570;10.428;2023-07-20T02:06:22;97610.09;;;15.91
61977;BMP280;45905;50.570;10.428;2023-07-20T02:08:50;97614.00;;;15.87
61977;BMP280;45905;50.570;10.428;2023-07-20T02:11:17;97610.47;;;15.82
61977;BMP280;45905;50.570;10.428;2023-07-20T02:13:44;97610.84;;;15.79
61977;BMP280;45905;50.570;10.428;2023-07-20T02:16:12;97610.06;;;15.79
61977;BMP280;45905;50.570;10.428;2023-07-20T02:18:39;97607.13;;;15.75
61977;BMP280;45905;50.570;10.428;2023-07-20T02:21:07;97602.75;;;15.76
61977;BMP280;45905;50.570;10.428;2023-07-20T02:23:34;97604.16;;;15.72
61977;BMP280;45905;50.570;10.428;2023-07-20T02:26:01;97613.16;;;15.68
61977;BMP280;45905;50.570;10.428;2023-07-20T02:28:29;97609.63;;;15.69
61977;BMP280;45905;50.570;10.428;2023-07-20T02:30:56;97599.81;;;15.66
61977;BMP280;45905;50.570;10.428;2023-07-20T02:33:23;97605.31;;;15.63
61977;BMP280;45905;50.570;10.428;2023-07-20T02:35:50;97602.94;;;15.55
61977;BMP280;45905;50.570;10.428;2023-07-20T02:38:18;97608.81;;;15.56
61977;BMP280;45905;50.570;10.428;2023-07-20T02:40:45;97604.09;;;15.53
61977;BMP280;45905;50.570;10.428;2023-07-20T02:43:12;97610.16;;;15.46
61977;BMP280;45905;50.570;10.428;2023-07-20T02:45:43;97611.31;;;15.43
61977;BMP280;45905;50.570;10.428;2023-07-20T02:48:10;97616.25;;;15.45
61977;BMP280;45905;50.570;10.428;2023-07-20T02:50:37;97618.63;;;15.46
61977;BMP280;45905;50.570;10.428;2023-07-20T02:53:04;97622.56;;;15.48
61977;BMP280;45905;50.570;10.428;2023-07-20T02:55:32;97624.50;;;15.46
61977;BMP280;45905;50.570;10.428;2023-07-20T02:57:59;97634.31;;;15.43
61977;BMP280;45905;50.570;10.428;2023-07-20T03:00:26;97635.28;;;15.42
61977;BMP280;45905;50.570;10.428;2023-07-20T03:02:54;97627.22;;;15.39
61977;BMP280;45905;50.570;10.428;2023-07-20T03:05:23;97632.53;;;15.44
61977;BMP280;45905;50.570;10.428;2023-07-20T03:07:56;97631.75;;;15.43
61977;BMP280;45905;50.570;10.428;2023-07-20T03:10:23;97636.47;;;15.46
61977;BMP280;45905;50.570;10.428;2023-07-20T03:12:50;97631.56;;;15.45
61977;BMP280;45905;50.570;10.428;2023-07-20T03:15:17;97638.25;;;15.46
61977;BMP280;45905;50.570;10.428;2023-07-20T03:17:44;97636.28;;;15.47
61977;BMP280;45905;50.570;10.428;2023-07-20T03:20:12;97640.78;;;15.46
61977;BMP280;45905;50.570;10.428;2023-07-20T03:22:40;97636.66;;;15.45
61977;BMP280;45905;50.570;10.428;2023-07-20T03:25:08;97642.56;;;15.45
61977;BMP280;45905;50.570;10.428;2023-07-20T03:27:36;97635.06;;;15.37
61977;BMP280;45905;50.570;10.428;2023-07-20T03:30:03;97624.44;;;15.34
61977;BMP280;45905;50.570;10.428;2023-07-20T03:32:31;97627.59;;;15.36
61977;BMP280;45905;50.570;10.428;2023-07-20T03:34:58;97629.97;;;15.37
61977;BMP280;45905;50.570;10.428;2023-07-20T03:37:25;97634.28;;;15.37
61977;BMP280;45905;50.570;10.428;2023-07-20T03:39:53;97637.38;;;15.32
61977;BMP280;45905;50.570;10.428;2023-07-20T03:42:20;97651.16;;;15.31
61977;BMP280;45905;50.570;10.428;2023-07-20T03:44:48;97649.16;;;15.27
61977;BMP280;45905;50.570;10.428;2023-07-20T03:47:15;97654.88;;;15.29
61977;BMP280;45905;50.570;10.428;2023-07-20T03:49:42;97653.88;;;15.30
61977;BMP280;45905;50.570;10.428;2023-07-20T03:52:09;97653.28;;;15.28
61977;BMP280;45905;50.570;10.428;2023-07-20T03:54:36;97645.81;;;15.27
61977;BMP280;45905;50.570;10.428;2023-07-20T03:57:04;97649.91;;;15.21
61977;BMP280;45905;50.570;10.428;2023-07-20T03:59:31;97655.75;;;15.15
61977;BMP280;45905;50.570;10.428;2023-07-20T04:01:59;97662.84;;;15.13
61977;BMP280;45905;50.570;10.428;2023-07-20T04:04:26;97658.09;;;15.10
61977;BMP280;45905;50.570;10.428;2023-07-20T04:06:53;97650.88;;;15.14
61977;BMP280;45905;50.570;10.428;2023-07-20T04:09:20;97658.88;;;15.11
61977;BMP280;45905;50.570;10.428;2023-07-20T04:11:47;97658.06;;;15.04
61977;BMP280;45905;50.570;10.428;2023-07-20T04:14:14;97663.53;;;15.01
61977;BMP280;45905;50.570;10.428;2023-07-20T04:16:42;97666.88;;;15.02
61977;BMP280;45905;50.570;10.428;2023-07-20T04:19:09;97665.91;;;15.03
61977;BMP280;45905;50.570;10.428;2023-07-20T04:21:40;97683.94;;;15.01
61977;BMP280;45905;50.570;10.428;2023-07-20T04:24:08;97667.63;;;14.96
61977;BMP280;45905;50.570;10.428;2023-07-20T04:26:37;97676.88;;;14.97
61977;BMP280;45905;50.570;10.428;2023-07-20T04:29:04;97672.75;;;14.96
61977;BMP280;45905;50.570;10.428;2023-07-20T04:31:37;97673.75;;;15.01
61977;BMP280;45905;50.570;10.428;2023-07-20T04:34:04;97668.63;;;15.01
61977;BMP280;45905;50.570;10.428;2023-07-20T04:36:34;97666.88;;;15.02
61977;BMP280;45905;50.570;10.428;2023-07-20T04:39:02;97670.81;;;15.04
61977;BMP280;45905;50.570;10.428;2023-07-20T04:41:37;97671.41;;;15.06
61977;BMP280;45905;50.570;10.428;2023-07-20T04:44:04;97678.50;;;15.10
61977;BMP280;45905;50.570;10.428;2023-07-20T04:46:31;97681.28;;;15.15
61977;BMP280;45905;50.570;10.428;2023-07-20T04:49:01;97682.84;;;15.16
61977;BMP280;45905;50.570;10.428;2023-07-20T04:51:31;97686.00;;;15.18
61977;BMP280;45905;50.570;10.428;2023-07-20T04:53:58;97678.97;;;15.20
61977;BMP280;45905;50.570;10.428;2023-07-20T04:56:30;97687.22;;;15.22
61977;BMP280;45905;50.570;10.428;2023-07-20T04:58:57;97692.31;;;15.22
61977;BMP280;45905;50.570;10.428;2023-07-20T05:01:25;97687.22;;;15.22
61977;BMP280;45905;50.570;10.428;2023-07-20T05:03:53;97689.97;;;15.27
61977;BMP280;45905;50.570;10.428;2023-07-20T05:06:21;97685.31;;;15.30
61977;BMP280;45905;50.570;10.428;2023-07-20T05:08:49;97677.06;;;15.35
61977;BMP280;45905;50.570;10.428;2023-07-20T05:11:17;97686.28;;;15.36
61977;BMP280;45905;50.570;10.428;2023-07-20T05:13:44;97676.28;;;15.34
61977;BMP280;45905;50.570;10.428;2023-07-20T05:16:11;97681.81;;;15.38
61977;BMP280;45905;50.570;10.428;2023-07-20T05:18:38;97674.53;;;15.41
61977;BMP280;45905;50.570;10.428;2023-07-20T05:21:06;97678.72;;;15.48
61977;BMP280;45905;50.570;10.428;2023-07-20T05:23:34;97686.56;;;15.53
61977;BMP280;45905;50.570;10.428;2023-07-20T05:26:01;97686.59;;;15.60
61977;BMP280;45905;50.570;10.428;2023-07-20T05:28:28;97690.16;;;15.65
61977;BMP280;45905;50.570;10.428;2023-07-20T05:30:56;97680.75;;;15.72
61977;BMP280;45905;50.570;10.428;2023-07-20T05:33:23;97687.44;;;15.79
61977;BMP280;45905;50.570;10.428;2023-07-20T05:35:51;97686.28;;;15.82
61977;BMP280;45905;50.570;10.428;2023-07-20T05:38:18;97681.19;;;15.88
61977;BMP280;45905;50.570;10.428;2023-07-20T05:40:46;97678.06;;;15.92
61977;BMP280;45905;50.570;10.428;2023-07-20T05:43:14;97669.03;;;15.96
61977;BMP280;45905;50.570;10.428;2023-07-20T05:45:44;97678.72;;;16.01
61977;BMP280;45905;50.570;10.428;2023-07-20T05:48:12;97684.03;;;16.05
61977;BMP280;45905;50.570;10.428;2023-07-20T05:50:43;97681.69;;;16.10
61977;BMP280;45905;50.570;10.428;2023-07-20T05:53:11;97680.13;;;16.16
61977;BMP280;45905;50.570;10.428;2023-07-20T05:55:38;97683.28;;;16.18
61977;BMP280;45905;50.570;10.428;2023-07-20T05:58:07;97687.19;;;16.20
61977;BMP280;45905;50.570;10.428;2023-07-20T06:00:34;97680.91;;;16.23
61977;BMP280;45905;50.570;10.428;2023-07-20T06:03:01;97676.41;;;16.24
61977;BMP280;45905;50.570;10.428;2023-07-20T06:05:30;97678.75;;;16.26
61977;BMP280;45905;50.570;10.428;2023-07-20T06:07:57;97684.47;;;16.28
61977;BMP280;45905;50.570;10.428;2023-07-20T06:10:25;97681.69;;;16.29
61977;BMP280;45905;50.570;10.428;2023-07-20T06:12:53;97681.31;;;16.32
61977;BMP280;45905;50.570;10.428;2023-07-20T06:15:26;97676.00;;;16.34
61977;BMP280;45905;50.570;10.428;2023-07-20T06:17:55;97683.69;;;16.40
61977;BMP280;45905;50.570;10.428;2023-07-20T06:20:25;97688.00;;;16.46
61977;BMP280;45905;50.570;10.428;2023-07-20T06:22:53;97679.94;;;16.49
61977;BMP280;45905;50.570;10.428;2023-07-20T06:25:20;97686.44;;;16.58
61977;BMP280;45905;50.570;10.428;2023-07-20T06:27:50;97679.78;;;16.63
61977;BMP280;45905;50.570;10.428;2023-07-20T06:30:21;97674.66;;;16.69
61977;BMP280;45905;50.570;10.428;2023-07-20T06:32:48;97668.72;;;16.75
61977;BMP280;45905;50.570;10.428;2023-07-20T06:35:16;97670.47;;;16.81
61977;BMP280;45905;50.570;10.428;2023-07-20T06:37:44;97669.72;;;16.87
61977;BMP280;45905;50.570;10.428;2023-07-20T06:40:12;97663.63;;;16.94
61977;BMP280;45905;50.570;10.428;2023-07-20T06:42:42;97673.84;;;17.00
61977;BMP280;45905;50.570;10.428;2023-07-20T06:45:12;97665.94;;;17.08
61977;BMP280;45905;50.570;10.428;2023-07-20T06:47:40;97672.66;;;17.16
61977;BMP280;45905;50.570;10.428;2023-07-20T06:50:08;97671.25;;;17.19
61977;BMP280;45905;50.570;10.428;2023-07-20T06:52:37;97678.88;;;17.26
61977;BMP280;45905;50.570;10.428;2023-07-20T06:55:05;97665.88;;;17.34
61977;BMP280;45905;50.570;10.428;2023-07-20T06:57:33;97659.19;;;17.39
61977;BMP280;45905;50.570;10.428;2023-07-20T07:00:00;97665.84;;;17.46
61977;BMP280;45905;50.570;10.428;2023-07-20T07:02:27;97659.09;;;17.52
61977;BMP280;45905;50.570;10.428;2023-07-20T07:04:54;97665.81;;;17.59
61977;BMP280;45905;50.570;10.428;2023-07-20T07:07:26;97671.69;;;17.66
61977;BMP280;45905;50.570;10.428;2023-07-20T07:09:54;97668.09;;;17.73
61977;BMP280;45905;50.570;10.428;2023-07-20T07:12:21;97671.19;;;17.81
61977;BMP280;45905;50.570;10.428;2023-07-20T07:14:48;97664.50;;;17.87
61977;BMP280;45905;50.570;10.428;2023-07-20T07:17:15;97664.28;;;17.88
61977;BMP280;45905;50.570;10.428;2023-07-20T07:19:46;97671.19;;;17.94
61977;BMP280;45905;50.570;10.428;2023-07-20T07:22:15;97658.53;;;17.99
61977;BMP280;45905;50.570;10.428;2023-07-20T07:24:43;97678.19;;;18.05
61977;BMP280;45905;50.570;10.428;2023-07-20T07:27:11;97658.22;;;18.13
61977;BMP280;45905;50.570;10.428;2023-07-20T07:29:39;97654.41;;;18.22
61977;BMP280;45905;50.570;10.428;2023-07-20T07:32:07;97661.66;;;18.31
61977;BMP280;45905;50.570;10.428;2023-07-20T07:34:34;97665.97;;;18.37
61977;BMP280;45905;50.570;10.428;2023-07-20T07:37:02;97661.78;;;18.42
61977;BMP280;45905;50.570;10.428;2023-07-20T07:39:30;97659.16;;;18.49
61977;BMP280;45905;50.570;10.428;2023-07-20T07:42:01;97661.09;;;18.53
61977;BMP280;45905;50.570;10.428;2023-07-20T07:44:29;97664.25;;;18.55
61977;BMP280;45905;50.570;10.428;2023-07-20T07:46:56;97674.28;;;18.56
61977;BMP280;45905;50.570;10.428;2023-07-20T07:49:24;97672.28;;;18.58
61977;BMP280;45905;50.570;10.428;2023-07-20T07:51:51;97673.25;;;18.64
61977;BMP280;45905;50.570;10.428;2023-07-20T07:54:18;97675.97;;;18.69
61977;BMP280;45905;50.570;10.428;2023-07-20T07:56:45;97677.34;;;18.71
61977;BMP280;45905;50.570;10.428;2023-07-20T07:59:13;97676.13;;;18.73
61977;BMP280;45905;50.570;10.428;2023-07-20T08:01:40;97681.63;;;18.77
61977;BMP280;45905;50.570;10.428;2023-07-20T08:04:07;97686.00;;;18.76
61977;BMP280;45905;50.570;10.428;2023-07-20T08:06:35;97687.19;;;18.74
61977;BMP280;45905;50.570;10.428;2023-07-20T08:09:03;97690.16;;;18.71
61977;BMP280;45905;50.570;10.428;2023-07-20T08:11:30;97692.56;;;18.66
61977;BMP280;45905;50.570;10.428;2023-07-20T08:14:01;97688.25;;;18.60
61977;BMP280;45905;50.570;10.428;2023-07-20T08:16:28;97692.81;;;18.58
61977;BMP280;45905;50.570;10.428;2023-07-20T08:18:56;97691.25;;;18.57
61977;BMP280;45905;50.570;10.428;2023-07-20T08:21:24;97685.91;;;18.59
61977;BMP280;45905;50.570;10.428;2023-07-20T08:23:51;97686.50;;;18.61
61977;BMP280;45905;50.570;10.428;2023-07-20T08:26:18;97695.13;;;18.66
61977;BMP280;45905;50.570;10.428;2023-07-20T08:28:49;97695.50;;;18.70
61977;BMP280;45905;50.570;10.428;2023-07-20T08:31:17;97690.38;;;18.70
61977;BMP280;45905;50.570;10.428;2023-07-20T08:33:44;97690.53;;;18.74
61977;BMP280;45905;50.570;10.428;2023-07-20T08:36:11;97684.38;;;18.82
61977;BMP280;45905;50.570;10.428;2023-07-20T08:38:38;97689.25;;;18.90
61977;BMP280;45905;50.570;10.428;2023-07-20T08:41:06;97687.81;;;18.93
61977;BMP280;45905;50.570;10.428;2023-07-20T08:43:33;97690.53;;;18.98
61977;BMP280;45905;50.570;10.428;2023-07-20T08:46:04;97688.13;;;19.03
61977;BMP280;45905;50.570;10.428;2023-07-20T08:48:31;97700.31;;;19.08
61977;BMP280;45905;50.570;10.428;2023-07-20T08:51:01;97695.97;;;19.08
61977;BMP280;45905;50.570;10.428;2023-07-20T08:53:31;97697.53;;;19.09
61977;BMP280;45905;50.570;10.428;2023-07-20T08:56:01;97694.13;;;19.15
61977;BMP280;45905;50.570;10.428;2023-07-20T08:58:29;97690.06;;;19.25
61977;BMP280;45905;50.570;10.428;2023-07-20T09:00:59;97687.00;;;19.34
61977;BMP280;45905;50.570;10.428;2023-07-20T09:03:28;97689.06;;;19.44
61977;BMP280;45905;50.570;10.428;2023-07-20T09:05:56;97674.81;;;19.48
61977;BMP280;45905;50.570;10.428;2023-07-20T09:08:23;97680.84;;;19.53
61977;BMP280;45905;50.570;10.428;2023-07-20T09:10:51;97687.16;;;19.57
61977;BMP280;45905;50.570;10.428;2023-07-20T09:13:18;97681.63;;;19.60
61977;BMP280;45905;50.570;10.428;2023-07-20T09:15:53;97669.75;;;19.59
61977;BMP280;45905;50.570;10.428;2023-07-20T09:18:29;97683.19;;;19.61
61977;BMP280;45905;50.570;10.428;2023-07-20T09:21:05;97687.88;;;19.64
61977;BMP280;45905;50.570;10.428;2023-07-20T09:23:39;97683.09;;;19.67
61977;BMP280;45905;50.570;10.428;2023-07-20T09:26:14;97687.16;;;19.74
61977;BMP280;45905;50.570;10.428;2023-07-20T09:29:07;97691.00;;;19.83
61977;BMP280;45905;50.570;10.428;2023-07-20T09:31:35;97688.00;;;19.86
61977;BMP280;45905;50.570;10.428;2023-07-20T09:34:05;97695.41;;;19.94
61977;BMP280;45905;50.570;10.428;2023-07-20T09:36:36;97689.38;;;20.00
61977;BMP280;45905;50.570;10.428;2023-07-20T09:39:08;97686.19;;;20.04
61977;BMP280;45905;50.570;10.428;2023-07-20T09:41:42;97686.09;;;20.10
61977;BMP280;45905;50.570;10.428;2023-07-20T09:44:16;97684.88;;;20.13
61977;BMP280;45905;50.570;10.428;2023-07-20T09:46:49;97678.06;;;20.18
61977;BMP280;45905;50.570;10.428;2023-07-20T09:49:19;97672.59;;;20.26
61977;BMP280;45905;50.570;10.428;2023-07-20T09:51:51;97677.84;;;20.31
61977;BMP280;45905;50.570;10.428;2023-07-20T09:54:21;97676.81;;;20.38
61977;BMP280;45905;50.570;10.428;2023-07-20T09:56:51;97675.03;;;20.39
61977;BMP280;45905;50.570;10.428;2023-07-20T09:59:20;97681.88;;;20.27
61977;BMP280;45905;50.570;10.428;2023-07-20T10:01:49;97681.88;;;20.27
61977;BMP280;45905;50.570;10.428;2023-07-20T10:04:18;97681.31;;;20.25
61977;BMP280;45905;50.570;10.428;2023-07-20T10:06:52;97680.53;;;20.25
61977;BMP280;45905;50.570;10.428;2023-07-20T10:09:23;97679.97;;;20.23
61977;BMP280;45905;50.570;10.428;2023-07-20T10:11:53;97679.16;;;20.22
61977;BMP280;45905;50.570;10.428;2023-07-20T10:14:46;97681.09;;;20.26
61977;BMP280;45905;50.570;10.428;2023-07-20T10:17:17;97675.84;;;20.33
61977;BMP280;45905;50.570;10.428;2023-07-20T10:19:50;97669.88;;;20.39
61977;BMP280;45905;50.570;10.428;2023-07-20T10:22:26;97677.81;;;20.48
61977;BMP280;45905;50.570;10.428;2023-07-20T10:24:54;97669.78;;;20.56
61977;BMP280;45905;50.570;10.428;2023-07-20T10:27:22;97660.75;;;20.65
61977;BMP280;45905;50.570;10.428;2023-07-20T10:29:51;97662.53;;;20.76
61977;BMP280;45905;50.570;10.428;2023-07-20T10:32:20;97659.59;;;20.83
61977;BMP280;45905;50.570;10.428;2023-07-20T10:34:52;97663.88;;;20.89
61977;BMP280;45905;50.570;10.428;2023-07-20T10:37:52;97652.56;;;20.90
61977;BMP280;45905;50.570;10.428;2023-07-20T10:40:31;97655.03;;;20.85
61977;BMP280;45905;50.570;10.428;2023-07-20T10:45:42;97668.00;;;20.68
61977;BMP280;45905;50.570;10.428;2023-07-20T10:48:18;97672.38;;;20.56
61977;BMP280;45905;50.570;10.428;2023-07-20T10:51:11;97689.13;;;20.47
61977;BMP280;45905;50.570;10.428;2023-07-20T10:53:40;97695.59;;;20.39
61977;BMP280;45905;50.570;10.428;2023-07-20T10:56:22;97708.38;;;20.27
61977;BMP280;45905;50.570;10.428;2023-07-20T10:58:58;97704.66;;;20.12
61977;BMP280;45905;50.570;10.428;2023-07-20T11:01:30;97701.25;;;20.01
61977;BMP280;45905;50.570;10.428;2023-07-20T11:03:59;97702.53;;;19.92
61977;BMP280;45905;50.570;10.428;2023-07-20T11:09:11;97701.50;;;19.82
61977;BMP280;45905;50.570;10.428;2023-07-20T11:11:48;97708.19;;;19.83
61977;BMP280;45905;50.570;10.428;2023-07-20T11:14:25;97700.69;;;19.81
61977;BMP280;45905;50.570;10.428;2023-07-20T11:16:53;97704.84;;;19.82
61977;BMP280;45905;50.570;10.428;2023-07-20T11:19:26;97702.06;;;19.84
61977;BMP280;45905;50.570;10.428;2023-07-20T11:21:57;97706.41;;;19.83
61977;BMP280;45905;50.570;10.428;2023-07-20T11:24:31;97703.84;;;19.83
61977;BMP280;45905;50.570;10.428;2023-07-20T11:26:59;97705.06;;;19.81
61977;BMP280;45905;50.570;10.428;2023-07-20T11:29:28;97703.16;;;19.76
61977;BMP280;45905;50.570;10.428;2023-07-20T11:32:02;97708.72;;;19.73
61977;BMP280;45905;50.570;10.428;2023-07-20T11:34:33;97702.22;;;19.71
61977;BMP280;45905;50.570;10.428;2023-07-20T11:37:01;97699.44;;;19.72
61977;BMP280;45905;50.570;10.428;2023-07-20T11:39:32;97701.00;;;19.73
61977;BMP280;45905;50.570;10.428;2023-07-20T11:42:00;97703.38;;;19.75
61977;BMP280;45905;50.570;10.428;2023-07-20T11:44:28;97706.72;;;19.75
61977;BMP280;45905;50.570;10.428;2023-07-20T11:47:09;97702.56;;;19.74
61977;BMP280;45905;50.570;10.428;2023-07-20T11:49:42;97716.56;;;19.78
61977;BMP280;45905;50.570;10.428;2023-07-20T11:52:14;97700.00;;;19.74
61977;BMP280;45905;50.570;10.428;2023-07-20T11:54:43;97703.38;;;19.75
61977;BMP280;45905;50.570;10.428;2023-07-20T11:57:22;97707.63;;;19.81
61977;BMP280;45905;50.570;10.428;2023-07-20T12:00:02;97706.00;;;19.86
61977;BMP280;45905;50.570;10.428;2023-07-20T12:02:38;97699.88;;;19.98
61977;BMP280;45905;50.570;10.428;2023-07-20T12:05:08;97699.06;;;20.15
61977;BMP280;45905;50.570;10.428;2023-07-20T12:07:36;97687.72;;;20.34
61977;BMP280;45905;50.570;10.428;2023-07-20T12:10:05;97669.53;;;20.58
61977;BMP280;45905;50.570;10.428;2023-07-20T12:12:34;97675.84;;;20.84
61977;BMP280;45905;50.570;10.428;2023-07-20T12:15:17;97670.94;;;21.05
61977;BMP280;45905;50.570;10.428;2023-07-20T12:17:51;97673.75;;;21.26
61977;BMP280;45905;50.570;10.428;2023-07-20T12:20:34;97661.59;;;21.49
61977;BMP280;45905;50.570;10.428;2023-07-20T12:23:11;97662.44;;;21.65
61977;BMP280;45905;50.570;10.428;2023-07-20T12:25:46;97672.72;;;21.88
61977;BMP280;45905;50.570;10.428;2023-07-20T12:28:19;97670.09;;;21.99
61977;BMP280;45905;50.570;10.428;2023-07-20T12:30:47;97666.91;;;22.08
61977;BMP280;45905;50.570;10.428;2023-07-20T12:33:24;97664.59;;;22.23
61977;BMP280;45905;50.570;10.428;2023-07-20T12:35:51;97667.31;;;22.33
61977;BMP280;45905;50.570;10.428;2023-07-20T12:38:23;97672.81;;;22.36
61977;BMP280;45905;50.570;10.428;2023-07-20T12:40:50;97679.56;;;22.37
61977;BMP280;45905;50.570;10.428;2023-07-20T12:43:17;97688.91;;;22.27
61977;BMP280;45905;50.570;10.428;2023-07-20T12:45:45;97705.16;;;22.11
61977;BMP280;45905;50.570;10.428;2023-07-20T12:48:12;97701.63;;;21.90
61977;BMP280;45905;50.570;10.428;2023-07-20T12:50:40;97705.13;;;21.73
61977;BMP280;45905;50.570;10.428;2023-07-20T12:53:07;97702.81;;;21.60
61977;BMP280;45905;50.570;10.428;2023-07-20T12:55:35;97707.66;;;21.45
61977;BMP280;45905;50.570;10.428;2023-07-20T12:58:02;97705.75;;;21.41
61977;BMP280;45905;50.570;10.428;2023-07-20T13:00:30;97704.19;;;21.40
61977;BMP280;45905;50.570;10.428;2023-07-20T13:02:57;97700.69;;;21.46
61977;BMP280;45905;50.570;10.428;2023-07-20T13:05:27;97700.94;;;21.44
61977;BMP280;45905;50.570;10.428;2023-07-20T13:07:58;97693.41;;;21.54
61977;BMP280;45905;50.570;10.428;2023-07-20T13:10:29;97693.19;;;21.56
61977;BMP280;45905;50.570;10.428;2023-07-20T13:12:57;97689.59;;;21.57
61977;BMP280;45905;50.570;10.428;2023-07-20T13:15:30;97690.50;;;21.62
61977;BMP280;45905;50.570;10.428;2023-07-20T13:17:59;97688.22;;;21.65
61977;BMP280;45905;50.570;10.428;2023-07-20T13:20:27;97684.00;;;21.60
61977;BMP280;45905;50.570;10.428;2023-07-20T13:22:55;97677.81;;;21.60
61977;BMP280;45905;50.570;10.428;2023-07-20T13:25:23;97681.63;;;21.69
61977;BMP280;45905;50.570;10.428;2023-07-20T13:27:50;97686.41;;;21.77
61977;BMP280;45905;50.570;10.428;2023-07-20T13:30:18;97671.38;;;21.74
61977;BMP280;45905;50.570;10.428;2023-07-20T13:32:46;97667.34;;;21.78
61977;BMP280;45905;50.570;10.428;2023-07-20T13:35:13;97663.28;;;21.82
61977;BMP280;45905;50.570;10.428;2023-07-20T13:37:41;97658.25;;;21.87
61977;BMP280;45905;50.570;10.428;2023-07-20T13:40:09;97657.56;;;21.91
61977;BMP280;45905;50.570;10.428;2023-07-20T13:42:40;97663.28;;;21.93
61977;BMP280;45905;50.570;10.428;2023-07-20T13:45:08;97661.91;;;22.02
61977;BMP280;45905;50.570;10.428;2023-07-20T13:47:35;97658.16;;;22.09
61977;BMP280;45905;50.570;10.428;2023-07-20T13:50:04;97664.50;;;22.18
61977;BMP280;45905;50.570;10.428;2023-07-20T13:52:32;97660.47;;;22.22
61977;BMP280;45905;50.570;10.428;2023-07-20T13:55:03;97663.22;;;22.32
61977;BMP280;45905;50.570;10.428;2023-07-20T13:57:32;97660.31;;;22.44
61977;BMP280;45905;50.570;10.428;2023-07-20T14:00:03;97655.09;;;22.56
61977;BMP280;45905;50.570;10.428;2023-07-20T14:02:40;97642.97;;;22.72
61977;BMP280;45905;50.570;10.428;2023-07-20T14:05:10;97648.28;;;22.98
61977;BMP280;45905;50.570;10.428;2023-07-20T14:07:40;97650.59;;;23.15
61977;BMP280;45905;50.570;10.428;2023-07-20T14:10:10;97645.56;;;23.25
61977;BMP280;45905;50.570;10.428;2023-07-20T14:12:40;97643.59;;;23.32
61977;BMP280;45905;50.570;10.428;2023-07-20T14:15:07;97640.06;;;23.38
61977;BMP280;45905;50.570;10.428;2023-07-20T14:17:35;97641.16;;;23.42
61977;BMP280;45905;50.570;10.428;2023-07-20T14:20:05;97632.13;;;23.44